sensor_id;sensor_type;location;lat;lon;timestamp;temperature;humidity
26051;DHT22;13825;53.496;10.020;2022-08-19T00:02:15;19.70;99.90
26051;DHT22;13825;53.496;10.020;2022-08-19T00:05:14;19.70;99.90
26051;DHT22;13825;53.496;10.020;2022-08-19T00:09:26;19.70;99.90
26051;DHT22;13825;53.496;10.020;2022-08-19T00:11:19;19.70;99.90
26051;DHT22;13825;53.496;10.020;2022-08-19T00:14:28;19.70;99.90
26051;DHT22;13825;53.496;10.020;2022-08-19T00:17:15;19.60;99.90
26051;DHT22;13825;53.496;10.020;2022-08-19T00:20:11;19.70;99.90
26051;DHT22;13825;53.496;10.020;2022-08-19T00:23:03;19.70;99.90
26051;DHT22;13825;53.496;10.020;2022-08-19T00:25:48;19.60;99.90
26051;DHT22;13825;53.496;10.020;2022-08-19T00:28:20;19.60;99.90
26051;DHT22;13825;53.496;10.020;2022-08-19T00:30:53;19.70;99.90
26051;DHT22;13825;53.496;10.020;2022-08-19T00:33:48;19.60;99.90
26051;DHT22;13825;53.496;10.020;2022-08-19T00:36:31;19.60;99.90
26051;DHT22;13825;53.496;10.020;2022-08-19T00:39:46;19.60;99.90
26051;DHT22;13825;53.496;10.020;2022-08-19T00:42:41;19.60;99.90
26051;DHT22;13825;53.496;10.020;2022-08-19T00:45:32;19.60;99.90
26051;DHT22;13825;53.496;10.020;2022-08-19T00:48:23;19.60;99.90
26051;DHT22;13825;53.496;10.020;2022-08-19T00:51:15;19.60;99.90
26051;DHT22;13825;53.496;10.020;2022-08-19T00:57:00;19.60;99.90
26051;DHT22;13825;53.496;10.020;2022-08-19T00:59:45;19.60;99.90
26051;DHT22;13825;53.496;10.020;2022-08-19T01:02:20;19.60;99.90
26051;DHT22;13825;53.496;10.020;2022-08-19T01:05:17;19.60;99.90
26051;DHT22;13825;53.496;10.020;2022-08-19T01:08:05;19.70;99.90
26051;DHT22;13825;53.496;10.020;2022-08-19T01:11:04;19.60;99.90
26051;DHT22;13825;53.496;10.020;2022-08-19T01:14:10;19.60;99.90
26051;DHT22;13825;53.496;10.020;2022-08-19T01:16:45;19.50;99.90
26051;DHT22;13825;53.496;10.020;2022-08-19T01:19:33;19.60;99.90
26051;DHT22;13825;53.496;10.020;2022-08-19T01:22:30;19.50;99.90
26051;DHT22;13825;53.496;10.020;2022-08-19T01:25:38;19.40;99.90
26051;DHT22;13825;53.496;10.020;2022-08-19T01:28:32;19.50;99.90
26051;DHT22;13825;53.496;10.020;2022-08-19T01:31:10;19.50;99.90
26051;DHT22;13825;53.496;10.020;2022-08-19T01:35:31;19.50;99.90
26051;DHT22;13825;53.496;10.020;2022-08-19T01:43:11;19.40;99.90
26051;DHT22;13825;53.496;10.020;2022-08-19T01:46:02;19.40;99.90
26051;DHT22;13825;53.496;10.020;2022-08-19T01:48:53;19.40;99.90
26051;DHT22;13825;53.496;10.020;2022-08-19T01:52:04;19.40;99.90
26051;DHT22;13825;53.496;10.020;2022-08-19T01:55:04;19.40;99.90
26051;DHT22;13825;53.496;10.020;2022-08-19T02:01:18;19.30;99.90
26051;DHT22;13825;53.496;10.020;2022-08-19T02:04:13;19.30;99.90
26051;DHT22;13825;53.496;10.020;2022-08-19T02:07:14;19.30;99.90
26051;DHT22;13825;53.496;10.020;2022-08-19T02:10:02;19.40;99.90
26051;DHT22;13825;53.496;10.020;2022-08-19T02:12:47;19.20;99.90
26051;DHT22;13825;53.496;10.020;2022-08-19T02:15:30;19.20;99.90
26051;DHT22;13825;53.496;10.020;2022-08-19T02:18:21;19.10;99.90
26051;DHT22;13825;53.496;10.020;2022-08-19T02:21:13;19.10;99.90
26051;DHT22;13825;53.496;10.020;2022-08-19T02:23:43;19.10;99.90
26051;DHT22;13825;53.496;10.020;2022-08-19T02:26:26;19.10;99.90
26051;DHT22;13825;53.496;10.020;2022-08-19T02:29:14;19.20;99.90
26051;DHT22;13825;53.496;10.020;2022-08-19T02:31:48;19.20;99.90
26051;DHT22;13825;53.496;10.020;2022-08-19T02:34:33;19.20;99.90
26051;DHT22;13825;53.496;10.020;2022-08-19T02:37:15;19.20;99.90
26051;DHT22;13825;53.496;10.020;2022-08-19T02:39:58;19.10;99.90
26051;DHT22;13825;53.496;10.020;2022-08-19T02:42:30;19.10;99.90
26051;DHT22;13825;53.496;10.020;2022-08-19T02:45:31;19.20;99.90
26051;DHT22;13825;53.496;10.020;2022-08-19T02:48:06;19.10;99.90
26051;DHT22;13825;53.496;10.020;2022-08-19T02:51:02;19.20;99.90
26051;DHT22;13825;53.496;10.020;2022-08-19T02:53:48;19.20;99.90
26051;DHT22;13825;53.496;10.020;2022-08-19T02:59:24;19.20;99.90
26051;DHT22;13825;53.496;10.020;2022-08-19T03:02:07;19.20;99.90
26051;DHT22;13825;53.496;10.020;2022-08-19T03:04:49;19.20;99.90
26051;DHT22;13825;53.496;10.020;2022-08-19T03:10:27;19.20;99.90
26051;DHT22;13825;53.496;10.020;2022-08-19T03:13:20;19.10;99.90
26051;DHT22;13825;53.496;10.020;2022-08-19T03:19:13;19.10;99.90
26051;DHT22;13825;53.496;10.020;2022-08-19T03:22:11;19.10;99.90
26051;DHT22;13825;53.496;10.020;2022-08-19T03:25:18;19.00;99.90
26051;DHT22;13825;53.496;10.020;2022-08-19T03:28:10;19.00;99.90
26051;DHT22;13825;53.496;10.020;2022-08-19T03:31:11;19.00;99.90
26051;DHT22;13825;53.496;10.020;2022-08-19T03:36:52;19.00;99.90
26051;DHT22;13825;53.496;10.020;2022-08-19T03:42:44;18.90;99.90
26051;DHT22;13825;53.496;10.020;2022-08-19T03:45:22;18.90;99.90
26051;DHT22;13825;53.496;10.020;2022-08-19T03:47:55;18.90;99.90
26051;DHT22;13825;53.496;10.020;2022-08-19T03:50:41;18.90;99.90
26051;DHT22;13825;53.496;10.020;2022-08-19T03:53:38;18.90;99.90
26051;DHT22;13825;53.496;10.020;2022-08-19T03:56:13;18.80;99.90
26051;DHT22;13825;53.496;10.020;2022-08-19T03:59:10;18.80;99.90
26051;DHT22;13825;53.496;10.020;2022-08-19T04:02:08;18.90;99.90
26051;DHT22;13825;53.496;10.020;2022-08-19T04:04:53;18.80;99.90
26051;DHT22;13825;53.496;10.020;2022-08-19T04:07:45;18.90;99.90
26051;DHT22;13825;53.496;10.020;2022-08-19T04:13:27;18.90;99.90
26051;DHT22;13825;53.496;10.020;2022-08-19T04:19:47;18.90;99.90
26051;DHT22;13825;53.496;10.020;2022-08-19T04:22:46;18.90;99.90
26051;DHT22;13825;53.496;10.020;2022-08-19T04:25:55;18.80;99.90
26051;DHT22;13825;53.496;10.020;2022-08-19T04:28:58;18.70;99.90
26051;DHT22;13825;53.496;10.020;2022-08-19T04:31:52;18.50;99.90
26051;DHT22;13825;53.496;10.020;2022-08-19T04:34:54;18.50;99.90
26051;DHT22;13825;53.496;10.020;2022-08-19T04:37:30;18.60;99.90
26051;DHT22;13825;53.496;10.020;2022-08-19T04:40:19;18.60;99.90
26051;DHT22;13825;53.496;10.020;2022-08-19T04:43:06;18.60;99.90
26051;DHT22;13825;53.496;10.020;2022-08-19T04:46:08;18.50;99.90
26051;DHT22;13825;53.496;10.020;2022-08-19T04:48:44;18.50;99.90
26051;DHT22;13825;53.496;10.020;2022-08-19T04:51:28;18.40;99.90
26051;DHT22;13825;53.496;10.020;2022-08-19T04:54:18;18.50;99.90
26051;DHT22;13825;53.496;10.020;2022-08-19T04:56:59;18.40;99.90
26051;DHT22;13825;53.496;10.020;2022-08-19T05:00:00;18.50;99.90
26051;DHT22;13825;53.496;10.020;2022-08-19T05:02:41;18.50;99.90
26051;DHT22;13825;53.496;10.020;2022-08-19T05:05:32;18.40;99.90
26051;DHT22;13825;53.496;10.020;2022-08-19T05:08:27;18.40;99.90
26051;DHT22;13825;53.496;10.020;2022-08-19T05:11:16;18.40;99.90
26051;DHT22;13825;53.496;10.020;2022-08-19T05:13:55;18.30;99.90
26051;DHT22;13825;53.496;10.020;2022-08-19T05:16:42;18.30;99.90
26051;DHT22;13825;53.496;10.020;2022-08-19T05:19:23;18.30;99.90
26051;DHT22;13825;53.496;10.020;2022-08-19T05:22:09;18.30;99.90
26051;DHT22;13825;53.496;10.020;2022-08-19T05:25:03;18.30;99.90
26051;DHT22;13825;53.496;10.020;2022-08-19T05:27:46;18.30;99.90
26051;DHT22;13825;53.496;10.020;2022-08-19T05:30:18;18.30;99.90
26051;DHT22;13825;53.496;10.020;2022-08-19T05:33:01;18.30;99.90
26051;DHT22;13825;53.496;10.020;2022-08-19T05:35:46;18.30;99.90
26051;DHT22;13825;53.496;10.020;2022-08-19T05:38:45;18.30;99.90
26051;DHT22;13825;53.496;10.020;2022-08-19T05:41:29;18.30;99.90
26051;DHT22;13825;53.496;10.020;2022-08-19T05:44:23;18.30;99.90
26051;DHT22;13825;53.496;10.020;2022-08-19T05:47:19;18.20;99.90
26051;DHT22;13825;53.496;10.020;2022-08-19T05:49:58;18.20;99.90
26051;DHT22;13825;53.496;10.020;2022-08-19T05:52:38;18.30;99.90
26051;DHT22;13825;53.496;10.020;2022-08-19T05:55:21;18.30;99.90
26051;DHT22;13825;53.496;10.020;2022-08-19T05:58:00;18.30;99.90
26051;DHT22;13825;53.496;10.020;2022-08-19T06:00:37;18.30;99.90
26051;DHT22;13825;53.496;10.020;2022-08-19T06:03:18;18.30;99.90
26051;DHT22;13825;53.496;10.020;2022-08-19T06:05:53;18.30;99.90
26051;DHT22;13825;53.496;10.020;2022-08-19T06:08:35;18.30;99.90
26051;DHT22;13825;53.496;10.020;2022-08-19T06:11:20;18.30;99.90
26051;DHT22;13825;53.496;10.020;2022-08-19T06:14:00;18.30;99.90
26051;DHT22;13825;53.496;10.020;2022-08-19T06:16:36;18.30;99.90
26051;DHT22;13825;53.496;10.020;2022-08-19T06:19:28;18.40;99.90
26051;DHT22;13825;53.496;10.020;2022-08-19T06:22:07;18.50;99.90
26051;DHT22;13825;53.496;10.020;2022-08-19T06:24:58;18.50;99.90
26051;DHT22;13825;53.496;10.020;2022-08-19T06:27:36;18.60;99.90
26051;DHT22;13825;53.496;10.020;2022-08-19T06:30:30;18.60;99.90
26051;DHT22;13825;53.496;10.020;2022-08-19T06:36:27;18.80;99.90
26051;DHT22;13825;53.496;10.020;2022-08-19T06:39:16;18.70;99.90
26051;DHT22;13825;53.496;10.020;2022-08-19T06:42:16;18.70;99.90
26051;DHT22;13825;53.496;10.020;2022-08-19T06:44:47;18.60;99.90
26051;DHT22;13825;53.496;10.020;2022-08-19T06:47:41;18.70;99.90
26051;DHT22;13825;53.496;10.020;2022-08-19T06:51:00;18.60;99.90
26051;DHT22;13825;53.496;10.020;2022-08-19T06:53:30;18.60;99.90
26051;DHT22;13825;53.496;10.020;2022-08-19T06:56:23;18.60;99.90
26051;DHT22;13825;53.496;10.020;2022-08-19T06:59:14;18.60;99.90
26051;DHT22;13825;53.496;10.020;2022-08-19T07:02:03;18.60;99.90
26051;DHT22;13825;53.496;10.020;2022-08-19T07:11:15;18.60;99.90
26051;DHT22;13825;53.496;10.020;2022-08-19T07:13:58;18.60;99.90
26051;DHT22;13825;53.496;10.020;2022-08-19T07:17:11;18.60;99.90
26051;DHT22;13825;53.496;10.020;2022-08-19T07:19:58;18.70;99.90
26051;DHT22;13825;53.496;10.020;2022-08-19T07:22:40;18.80;99.90
26051;DHT22;13825;53.496;10.020;2022-08-19T07:25:21;19.00;99.90
26051;DHT22;13825;53.496;10.020;2022-08-19T07:28:03;19.00;99.90
26051;DHT22;13825;53.496;10.020;2022-08-19T07:30:53;19.10;99.90
26051;DHT22;13825;53.496;10.020;2022-08-19T07:33:40;19.10;99.90
26051;DHT22;13825;53.496;10.020;2022-08-19T07:36:35;19.00;99.90
26051;DHT22;13825;53.496;10.020;2022-08-19T07:39:20;19.10;99.90
26051;DHT22;13825;53.496;10.020;2022-08-19T07:41:59;19.10;99.90
26051;DHT22;13825;53.496;10.020;2022-08-19T07:44:34;19.20;99.90
26051;DHT22;13825;53.496;10.020;2022-08-19T07:47:17;19.20;99.90
26051;DHT22;13825;53.496;10.020;2022-08-19T07:49:49;19.10;99.90
26051;DHT22;13825;53.496;10.020;2022-08-19T07:52:23;19.00;99.90
26051;DHT22;13825;53.496;10.020;2022-08-19T07:54:53;19.10;99.90
26051;DHT22;13825;53.496;10.020;2022-08-19T07:57:25;19.10;99.90
26051;DHT22;13825;53.496;10.020;2022-08-19T07:59:55;19.20;99.90
26051;DHT22;13825;53.496;10.020;2022-08-19T08:02:25;19.20;99.90
26051;DHT22;13825;53.496;10.020;2022-08-19T08:05:16;19.30;99.90
26051;DHT22;13825;53.496;10.020;2022-08-19T08:11:02;19.20;99.90
26051;DHT22;13825;53.496;10.020;2022-08-19T08:13:32;19.30;99.90
26051;DHT22;13825;53.496;10.020;2022-08-19T08:16:14;19.30;99.90
26051;DHT22;13825;53.496;10.020;2022-08-19T08:19:08;19.30;99.90
26051;DHT22;13825;53.496;10.020;2022-08-19T08:21:38;19.30;99.90
26051;DHT22;13825;53.496;10.020;2022-08-19T08:24:45;19.30;99.90
26051;DHT22;13825;53.496;10.020;2022-08-19T08:27:41;19.40;99.90
26051;DHT22;13825;53.496;10.020;2022-08-19T08:30:31;19.40;99.90
26051;DHT22;13825;53.496;10.020;2022-08-19T08:33:18;19.30;99.90
26051;DHT22;13825;53.496;10.020;2022-08-19T08:35:55;19.30;99.90
26051;DHT22;13825;53.496;10.020;2022-08-19T08:38:27;19.40;99.90
26051;DHT22;13825;53.496;10.020;2022-08-19T08:41:13;19.40;99.90
26051;DHT22;13825;53.496;10.020;2022-08-19T08:46:43;19.50;99.90
26051;DHT22;13825;53.496;10.020;2022-08-19T08:49:26;19.50;99.90
26051;DHT22;13825;53.496;10.020;2022-08-19T08:55:22;19.50;99.90
26051;DHT22;13825;53.496;10.020;2022-08-19T09:17:58;19.60;99.90
26051;DHT22;13825;53.496;10.020;2022-08-19T09:26:25;19.70;99.90
26051;DHT22;13825;53.496;10.020;2022-08-19T09:51:51;20.00;99.90
26051;DHT22;13825;53.496;10.020;2022-08-19T09:54:50;19.90;99.90
26051;DHT22;13825;53.496;10.020;2022-08-19T09:58:47;19.80;99.90
26051;DHT22;13825;53.496;10.020;2022-08-19T10:04:22;19.90;99.90
26051;DHT22;13825;53.496;10.020;2022-08-19T10:11:31;19.90;99.90
26051;DHT22;13825;53.496;10.020;2022-08-19T10:17:34;20.00;99.90
26051;DHT22;13825;53.496;10.020;2022-08-19T10:23:24;19.90;99.90
26051;DHT22;13825;53.496;10.020;2022-08-19T12:45:08;22.10;99.90
26051;DHT22;13825;53.496;10.020;2022-08-19T12:48:04;22.30;99.90
26051;DHT22;13825;53.496;10.020;2022-08-19T12:51:33;22.30;99.90
26051;DHT22;13825;53.496;10.020;2022-08-19T12:55:29;23.00;99.90
26051;DHT22;13825;53.496;10.020;2022-08-19T12:58:15;23.70;99.90
26051;DHT22;13825;53.496;10.020;2022-08-19T13:04:03;24.00;99.90
26051;DHT22;13825;53.496;10.020;2022-08-19T13:07:30;24.10;99.90
26051;DHT22;13825;53.496;10.020;2022-08-19T13:13:11;23.90;99.90
26051;DHT22;13825;53.496;10.020;2022-08-19T13:18:54;23.70;99.90
26051;DHT22;13825;53.496;10.020;2022-08-19T13:21:27;23.60;99.90
26051;DHT22;13825;53.496;10.020;2022-08-19T13:24:46;23.60;99.90
26051;DHT22;13825;53.496;10.020;2022-08-19T13:28:01;23.60;99.90
26051;DHT22;13825;53.496;10.020;2022-08-19T13:31:02;23.60;99.90
26051;DHT22;13825;53.496;10.020;2022-08-19T13:33:52;23.40;99.90
26051;DHT22;13825;53.496;10.020;2022-08-19T13:36:33;23.40;99.90
26051;DHT22;13825;53.496;10.020;2022-08-19T13:39:06;23.40;99.90
26051;DHT22;13825;53.496;10.020;2022-08-19T13:41:43;23.30;99.90
26051;DHT22;13825;53.496;10.020;2022-08-19T13:44:13;23.10;99.90
26051;DHT22;13825;53.496;10.020;2022-08-19T13:46:41;23.00;99.90
26051;DHT22;13825;53.496;10.020;2022-08-19T13:49:16;22.80;99.90
26051;DHT22;13825;53.496;10.020;2022-08-19T13:51:47;22.80;99.90
26051;DHT22;13825;53.496;10.020;2022-08-19T13:57:37;22.70;99.90
26051;DHT22;13825;53.496;10.020;2022-08-19T14:00:15;22.80;99.90
26051;DHT22;13825;53.496;10.020;2022-08-19T14:05:31;22.70;99.90
26051;DHT22;13825;53.496;10.020;2022-08-19T14:08:01;22.50;99.90
26051;DHT22;13825;53.496;10.020;2022-08-19T14:12:56;22.50;99.90
26051;DHT22;13825;53.496;10.020;2022-08-19T14:15:30;22.40;99.90
26051;DHT22;13825;53.496;10.020;2022-08-19T14:17:58;22.50;99.90
26051;DHT22;13825;53.496;10.020;2022-08-19T14:20:53;22.50;99.90
26051;DHT22;13825;53.496;10.020;2022-08-19T14:23:44;22.60;99.90
26051;DHT22;13825;53.496;10.020;2022-08-19T14:26:43;22.60;99.90
26051;DHT22;13825;53.496;10.020;2022-08-19T14:29:18;22.60;99.90
26051;DHT22;13825;53.496;10.020;2022-08-19T14:31:49;22.60;99.90
26051;DHT22;13825;53.496;10.020;2022-08-19T14:34:41;22.60;99.90
26051;DHT22;13825;53.496;10.020;2022-08-19T14:37:50;22.70;99.90
26051;DHT22;13825;53.496;10.020;2022-08-19T14:41:04;22.90;99.90
26051;DHT22;13825;53.496;10.020;2022-08-19T14:44:04;23.00;99.90
26051;DHT22;13825;53.496;10.020;2022-08-19T14:47:13;23.40;99.90
26051;DHT22;13825;53.496;10.020;2022-08-19T14:49:50;23.40;99.90
26051;DHT22;13825;53.496;10.020;2022-08-19T14:53:10;23.70;99.90
26051;DHT22;13825;53.496;10.020;2022-08-19T14:56:28;24.00;99.90
26051;DHT22;13825;53.496;10.020;2022-08-19T14:59:48;24.40;99.90
26051;DHT22;13825;53.496;10.020;2022-08-19T15:08:57;23.80;99.90
26051;DHT22;13825;53.496;10.020;2022-08-19T15:21:30;23.50;99.90
26051;DHT22;13825;53.496;10.020;2022-08-19T15:24:28;23.50;99.90
26051;DHT22;13825;53.496;10.020;2022-08-19T15:27:18;23.50;99.90
26051;DHT22;13825;53.496;10.020;2022-08-19T16:01:26;25.60;99.90
26051;DHT22;13825;53.496;10.020;2022-08-19T16:07:51;24.80;99.90
26051;DHT22;13825;53.496;10.020;2022-08-19T16:10:43;24.20;99.90
26051;DHT22;13825;53.496;10.020;2022-08-19T16:13:37;24.00;99.90
26051;DHT22;13825;53.496;10.020;2022-08-19T16:23:34;23.70;99.90
26051;DHT22;13825;53.496;10.020;2022-08-19T16:26:47;23.60;99.90
26051;DHT22;13825;53.496;10.020;2022-08-19T16:36:04;25.20;99.90
26051;DHT22;13825;53.496;10.020;2022-08-19T16:39:09;25.50;99.90
26051;DHT22;13825;53.496;10.020;2022-08-19T16:42:14;25.40;99.90
26051;DHT22;13825;53.496;10.020;2022-08-19T16:51:38;26.00;99.90
26051;DHT22;13825;53.496;10.020;2022-08-19T16:54:29;26.20;99.90
26051;DHT22;13825;53.496;10.020;2022-08-19T16:57:48;26.20;99.90
26051;DHT22;13825;53.496;10.020;2022-08-19T17:03:46;26.50;99.90
26051;DHT22;13825;53.496;10.020;2022-08-19T17:06:56;26.50;99.90
26051;DHT22;13825;53.496;10.020;2022-08-19T17:10:14;27.10;99.20
26051;DHT22;13825;53.496;10.020;2022-08-19T17:13:20;27.00;97.60
26051;DHT22;13825;53.496;10.020;2022-08-19T17:17:06;27.30;95.00
26051;DHT22;13825;53.496;10.020;2022-08-19T17:20:02;27.00;97.50
26051;DHT22;13825;53.496;10.020;2022-08-19T17:23:26;26.90;98.40
26051;DHT22;13825;53.496;10.020;2022-08-19T17:26:30;27.00;96.00
26051;DHT22;13825;53.496;10.020;2022-08-19T17:29:46;27.10;95.80
26051;DHT22;13825;53.496;10.020;2022-08-19T17:33:08;26.70;98.00
26051;DHT22;13825;53.496;10.020;2022-08-19T17:36:31;26.50;99.90
26051;DHT22;13825;53.496;10.020;2022-08-19T17:53:08;26.20;98.90
26051;DHT22;13825;53.496;10.020;2022-08-19T17:55:50;25.60;99.90
26051;DHT22;13825;53.496;10.020;2022-08-19T18:02:37;24.10;99.90
26051;DHT22;13825;53.496;10.020;2022-08-19T18:07:01;23.80;99.90
26051;DHT22;13825;53.496;10.020;2022-08-19T18:09:33;23.60;99.90
26051;DHT22;13825;53.496;10.020;2022-08-19T18:16:00;22.80;99.90
26051;DHT22;13825;53.496;10.020;2022-08-19T18:25:28;22.40;99.90
26051;DHT22;13825;53.496;10.020;2022-08-19T18:28:29;22.40;99.90
26051;DHT22;13825;53.496;10.020;2022-08-19T18:40:21;21.70;99.90
26051;DHT22;13825;53.496;10.020;2022-08-19T18:47:18;21.50;99.90
26051;DHT22;13825;53.496;10.020;2022-08-19T18:50:33;21.30;99.90
26051;DHT22;13825;53.496;10.020;2022-08-19T18:53:49;21.20;99.90
26051;DHT22;13825;53.496;10.020;2022-08-19T18:57:12;21.20;99.90
26051;DHT22;13825;53.496;10.020;2022-08-19T19:00:18;21.10;99.90
26051;DHT22;13825;53.496;10.020;2022-08-19T19:16:15;20.60;99.90
26051;DHT22;13825;53.496;10.020;2022-08-19T19:23:40;20.30;99.90
26051;DHT22;13825;53.496;10.020;2022-08-19T19:25:57;20.10;99.90
26051;DHT22;13825;53.496;10.020;2022-08-19T19:29:01;19.90;99.90
26051;DHT22;13825;53.496;10.020;2022-08-19T19:32:09;19.70;99.90
26051;DHT22;13825;53.496;10.020;2022-08-19T19:35:00;19.60;99.90
26051;DHT22;13825;53.496;10.020;2022-08-19T19:41:41;19.30;99.90
26051;DHT22;13825;53.496;10.020;2022-08-19T19:45:33;19.20;99.90
26051;DHT22;13825;53.496;10.020;2022-08-19T19:48:20;19.10;99.90
26051;DHT22;13825;53.496;10.020;2022-08-19T19:54:09;18.90;99.90
26051;DHT22;13825;53.496;10.020;2022-08-19T19:57:01;18.70;99.90
26051;DHT22;13825;53.496;10.020;2022-08-19T20:00:21;18.70;99.90
26051;DHT22;13825;53.496;10.020;2022-08-19T20:06:45;18.50;99.90
26051;DHT22;13825;53.496;10.020;2022-08-19T20:09:45;18.40;99.90
26051;DHT22;13825;53.496;10.020;2022-08-19T20:12:31;18.30;99.90
26051;DHT22;13825;53.496;10.020;2022-08-19T20:15:44;18.40;99.90
26051;DHT22;13825;53.496;10.020;2022-08-19T20:18:44;18.30;99.90
26051;DHT22;13825;53.496;10.020;2022-08-19T20:22:05;18.20;99.90
26051;DHT22;13825;53.496;10.020;2022-08-19T20:25:23;18.00;99.90
26051;DHT22;13825;53.496;10.020;2022-08-19T20:28:14;18.00;99.90
26051;DHT22;13825;53.496;10.020;2022-08-19T20:31:07;18.00;99.90
26051;DHT22;13825;53.496;10.020;2022-08-19T20:34:02;17.90;99.90
26051;DHT22;13825;53.496;10.020;2022-08-19T20:39:54;17.80;99.90
26051;DHT22;13825;53.496;10.020;2022-08-19T20:43:05;17.70;99.90
26051;DHT22;13825;53.496;10.020;2022-08-19T20:45:44;17.70;99.90
26051;DHT22;13825;53.496;10.020;2022-08-19T20:48:52;17.70;99.90
26051;DHT22;13825;53.496;10.020;2022-08-19T20:51:53;17.70;99.90
26051;DHT22;13825;53.496;10.020;2022-08-19T20:55:02;17.60;99.90
26051;DHT22;13825;53.496;10.020;2022-08-19T20:57:56;17.60;99.90
26051;DHT22;13825;53.496;10.020;2022-08-19T21:00:44;17.60;99.90
26051;DHT22;13825;53.496;10.020;2022-08-19T21:03:42;17.60;99.90
26051;DHT22;13825;53.496;10.020;2022-08-19T21:09:50;17.50;99.90
26051;DHT22;13825;53.496;10.020;2022-08-19T21:19:46;17.40;99.90
26051;DHT22;13825;53.496;10.020;2022-08-19T21:22:49;17.30;99.90
26051;DHT22;13825;53.496;10.020;2022-08-19T21:25:45;17.30;99.90
26051;DHT22;13825;53.496;10.020;2022-08-19T21:29:31;17.30;99.90
26051;DHT22;13825;53.496;10.020;2022-08-19T22:01:37;17.10;99.90
26051;DHT22;13825;53.496;10.020;2022-08-19T22:04:25;17.10;99.90
26051;DHT22;13825;53.496;10.020;2022-08-19T22:07:26;17.10;99.90
26051;DHT22;13825;53.496;10.020;2022-08-19T22:23:40;17.00;99.90
26051;DHT22;13825;53.496;10.020;2022-08-19T22:30:23;17.00;99.90
26051;DHT22;13825;53.496;10.020;2022-08-19T22:33:11;16.90;99.90
26051;DHT22;13825;53.496;10.020;2022-08-19T23:11:32;17.50;99.90
26051;DHT22;13825;53.496;10.020;2022-08-19T23:14:23;17.40;99.90
26051;DHT22;13825;53.496;10.020;2022-08-19T23:17:06;17.60;99.90
26051;DHT22;13825;53.496;10.020;2022-08-19T23:19:53;17.70;99.90
26051;DHT22;13825;53.496;10.020;2022-08-19T23:25:59;17.90;99.90
26051;DHT22;13825;53.496;10.020;2022-08-19T23:28:41;18.00;99.90
26051;DHT22;13825;53.496;10.020;2022-08-19T23:31:44;18.00;99.90
26051;DHT22;13825;53.496;10.020;2022-08-19T23:34:30;18.20;99.90
26051;DHT22;13825;53.496;10.020;2022-08-19T23:37:11;18.30;99.90
26051;DHT22;13825;53.496;10.020;2022-08-19T23:40:15;18.50;99.90
26051;DHT22;13825;53.496;10.020;2022-08-19T23:43:20;18.60;99.90
26051;DHT22;13825;53.496;10.020;2022-08-19T23:46:14;18.70;99.90
26051;DHT22;13825;53.496;10.020;2022-08-19T23:49:25;18.80;99.90
26051;DHT22;13825;53.496;10.020;2022-08-19T23:55:05;18.80;99.90
